Time;durP1;ratioP1;P1;durP2;ratioP2;P2;SDS_P1;SDS_P2;PMS_P1;PMS_P2;Temp;Humidity;BMP_temperature;BMP_pressure;BME280_temperature;BME280_humidity;BME280_pressure;Samples;Min_cycle;Max_cycle;Signal;HPM_P1;HPM_P2
2022/05/01 00:00:36;;;;;;;2.47;2.27;;;23.30;52.90;;;;;;5012816;28;20503;-84
2022/05/01 00:03:49;;;;;;;3.77;3.00;;;23.30;52.90;;;;;;5012129;28;20405;-84
2022/05/01 00:06:15;;;;;;;3.93;2.40;;;23.30;52.90;;;;;;5013019;28;20388;-84
2022/05/01 00:08:45;;;;;;;3.07;2.37;;;23.20;52.90;;;;;;5013041;28;20397;-84
2022/05/01 00:11:13;;;;;;;3.10;2.20;;;23.20;52.90;;;;;;4995662;28;20442;-84
2022/05/01 00:13:43;;;;;;;3.20;2.23;;;23.20;53.40;;;;;;5012664;28;20455;-84
2022/05/01 00:16:15;;;;;;;3.17;2.43;;;23.20;52.90;;;;;;5013180;28;20890;-84
2022/05/01 00:18:47;;;;;;;2.70;2.50;;;23.20;52.80;;;;;;5025566;28;20443;-84
2022/05/01 00:21:15;;;;;;;4.27;2.60;;;23.20;52.90;;;;;;5012858;28;20503;-84
2022/05/01 00:23:43;;;;;;;2.77;2.57;;;23.20;52.80;;;;;;5010467;28;20416;-83
2022/05/01 00:26:11;;;;;;;3.20;2.63;;;23.20;52.80;;;;;;5011549;28;20420;-83
2022/05/01 00:28:40;;;;;;;2.97;2.50;;;23.20;52.80;;;;;;5012395;28;20441;-83
2022/05/01 00:31:07;;;;;;;2.27;2.07;;;23.20;52.80;;;;;;4995933;28;20446;-83
2022/05/01 00:36:27;;;;;;;3.20;2.10;;;23.20;52.80;;;;;;5014197;28;20518;-84
2022/05/01 00:39:02;;;;;;;2.77;2.23;;;23.20;52.90;;;;;;5012441;28;20433;-84
2022/05/01 00:41:47;;;;;;;2.40;2.20;;;23.20;52.90;;;;;;5012153;28;20518;-83
2022/05/01 00:44:17;;;;;;;3.00;2.40;;;23.20;52.90;;;;;;4995521;28;20458;-83
2022/05/01 00:46:44;;;;;;;3.17;2.53;;;23.20;52.80;;;;;;5005569;28;20428;-83
2022/05/01 00:49:16;;;;;;;2.80;2.17;;;23.20;52.90;;;;;;5013681;28;20424;-83
2022/05/01 00:51:45;;;;;;;2.40;2.20;;;23.20;52.80;;;;;;5010809;28;20454;-83
2022/05/01 00:54:20;;;;;;;2.33;2.10;;;23.20;52.80;;;;;;5011700;28;20459;-83
2022/05/01 00:56:50;;;;;;;3.53;2.77;;;23.20;52.80;;;;;;5010563;28;20427;-83
2022/05/01 00:59:26;;;;;;;3.57;2.53;;;23.20;52.80;;;;;;5011418;28;20417;-83
2022/05/01 01:01:54;;;;;;;3.00;2.60;;;23.20;52.80;;;;;;4996571;28;20428;-83
2022/05/01 01:04:25;;;;;;;6.60;2.57;;;23.20;52.90;;;;;;5012847;28;20450;-83
2022/05/01 01:06:52;;;;;;;4.40;2.30;;;23.20;52.90;;;;;;4996143;28;20452;-83
2022/05/01 01:09:19;;;;;;;2.87;2.33;;;23.10;52.80;;;;;;5011529;28;20419;-83
2022/05/01 01:12:53;;;;;;;2.73;2.30;;;23.20;52.90;;;;;;5011291;28;20459;-83
2022/05/01 01:14:34;;;;;;;2.63;2.43;;;23.20;52.90;;;;;;5011655;28;20419;-83
2022/05/01 01:17:04;;;;;;;2.47;2.27;;;23.10;52.90;;;;;;4995336;28;20440;-83
2022/05/01 01:19:30;;;;;;;2.73;2.37;;;23.20;52.90;;;;;;5011099;28;20444;-83
2022/05/01 01:22:01;;;;;;;2.33;2.07;;;23.20;52.90;;;;;;5010854;28;20436;-83
2022/05/01 01:24:27;;;;;;;4.17;2.73;;;23.10;52.90;;;;;;5011060;28;20428;-83
2022/05/01 01:26:54;;;;;;;3.63;2.33;;;23.20;52.90;;;;;;5011907;28;20400;-83
2022/05/01 01:32:11;;;;;;;3.60;2.87;;;23.20;52.90;;;;;;5012137;28;20468;-83
2022/05/01 01:34:39;;;;;;;2.97;2.53;;;23.20;52.90;;;;;;5011837;28;20414;-83
2022/05/01 01:37:07;;;;;;;3.20;2.53;;;23.10;52.90;;;;;;5011265;28;20422;-83
2022/05/01 01:39:33;;;;;;;2.00;1.80;;;23.20;52.90;;;;;;5014109;28;20428;-84
2022/05/01 01:42:05;;;;;;;2.13;1.93;;;23.20;52.90;;;;;;5014075;28;20454;-83
2022/05/01 01:44:37;;;;;;;2.70;2.13;;;23.20;52.90;;;;;;4998288;28;20419;-83
2022/05/01 01:47:06;;;;;;;2.20;2.00;;;23.10;52.80;;;;;;5014674;28;20424;-83
2022/05/01 01:49:35;;;;;;;2.67;2.47;;;23.20;52.80;;;;;;5013992;28;20486;-83
2022/05/01 01:52:01;;;;;;;2.80;2.50;;;23.20;52.80;;;;;;5014090;28;20445;-82
2022/05/01 01:54:30;;;;;;;2.40;2.20;;;23.20;52.80;;;;;;5015018;28;20446;-83
2022/05/01 01:56:56;;;;;;;2.20;2.00;;;23.10;52.80;;;;;;5014416;28;20408;-83
2022/05/01 01:59:23;;;;;;;2.30;2.00;;;23.10;52.70;;;;;;5030635;28;20408;-83
2022/05/01 02:01:52;;;;;;;2.20;2.00;;;23.10;52.70;;;;;;4997968;28;20451;-83
2022/05/01 02:04:19;;;;;;;2.70;2.43;;;23.10;52.80;;;;;;5014632;28;20417;-83
2022/05/01 02:06:45;;;;;;;2.60;2.33;;;23.10;52.90;;;;;;5014244;28;20420;-82
2022/05/01 02:09:18;;;;;;;2.97;2.47;;;23.10;52.80;;;;;;4997352;28;20435;-82
2022/05/01 02:11:44;;;;;;;3.30;2.40;;;23.10;52.80;;;;;;5027636;28;20468;-82
2022/05/01 02:14:11;;;;;;;2.30;2.10;;;23.10;52.80;;;;;;5012325;28;20456;-82
2022/05/01 02:16:39;;;;;;;2.37;2.13;;;23.10;52.80;;;;;;5012363;28;20428;-82
2022/05/01 02:19:05;;;;;;;2.57;2.27;;;23.10;52.70;;;;;;5011872;28;20424;-83
2022/05/01 02:21:35;;;;;;;3.43;2.83;;;23.10;53.30;;;;;;5013127;28;20428;-82
2022/05/01 02:24:12;;;;;;;2.70;2.27;;;23.10;52.70;;;;;;4981940;28;20420;-82
2022/05/01 02:26:39;;;;;;;3.13;2.67;;;23.10;52.70;;;;;;5014898;28;20434;-82
2022/05/01 02:29:12;;;;;;;3.43;2.40;;;23.10;52.70;;;;;;4997261;28;20421;-82
2022/05/01 02:31:42;;;;;;;3.60;2.07;;;23.10;52.70;;;;;;5014132;28;20511;-84
2022/05/01 02:34:10;;;;;;;2.60;2.40;;;23.10;52.70;;;;;;4982803;28;20452;-84
2022/05/01 02:36:39;;;;;;;2.80;1.93;;;23.10;52.80;;;;;;5014829;28;20432;-84
2022/05/01 02:39:06;;;;;;;2.50;2.10;;;23.10;52.80;;;;;;5014102;28;20417;-83
2022/05/01 02:41:32;;;;;;;2.30;2.10;;;23.10;52.80;;;;;;5013632;28;20421;-83
2022/05/01 02:44:22;;;;;;;2.77;2.00;;;23.10;52.80;;;;;;5013769;28;20428;-84
2022/05/01 02:50:14;;;;;;;2.30;2.10;;;23.10;52.80;;;;;;5013694;28;20376;-83
2022/05/01 02:52:43;;;;;;;2.57;2.30;;;23.10;52.90;;;;;;5030083;28;20456;-83
2022/05/01 02:55:23;;;;;;;;;;;;;;;;;;;;;
2022/05/01 02:57:51;;;;;;;2.40;2.20;;;23.10;52.90;;;;;;5012232;28;20451;-83
2022/05/01 03:07:13;;;;;;;3.57;2.50;;;23.10;52.90;;;;;;5012921;28;20387;-83
2022/05/01 03:09:41;;;;;;;2.67;2.33;;;23.10;52.90;;;;;;5011457;28;20388;-84
2022/05/01 03:12:13;;;;;;;2.30;2.10;;;23.00;52.80;;;;;;5013896;28;20416;-83
2022/05/01 03:14:42;;;;;;;2.70;2.40;;;23.10;52.90;;;;;;5013399;28;20404;-83
2022/05/01 03:17:09;;;;;;;2.83;2.23;;;23.10;52.90;;;;;;5014617;28;20419;-84
2022/05/01 03:22:21;;;;;;;2.10;1.90;;;23.10;52.80;;;;;;5013096;28;20435;-83
2022/05/01 03:24:48;;;;;;;2.40;2.20;;;23.10;52.80;;;;;;5013557;28;20428;-83
2022/05/01 03:27:18;;;;;;;2.53;2.33;;;23.10;52.80;;;;;;5013909;28;20408;-83
2022/05/01 03:30:15;;;;;;;2.10;1.80;;;23.10;52.80;;;;;;5012754;28;20401;-83
2022/05/01 03:32:33;;;;;;;2.10;1.90;;;23.10;52.80;;;;;;5015112;28;20475;-83
2022/05/01 03:35:00;;;;;;;2.20;1.90;;;23.10;52.80;;;;;;4995774;28;20425;-83
2022/05/01 03:37:29;;;;;;;2.13;1.87;;;23.10;52.80;;;;;;4994064;28;20445;-83
2022/05/01 03:39:55;;;;;;;2.90;2.27;;;23.10;52.80;;;;;;4977775;28;20429;-83
2022/05/01 03:42:21;;;;;;;2.40;1.83;;;23.10;52.80;;;;;;4976664;28;20433;-82
2022/05/01 03:44:50;;;;;;;2.30;1.77;;;23.10;52.80;;;;;;4991004;28;20493;-83
2022/05/01 03:47:16;;;;;;;2.80;2.27;;;23.10;52.80;;;;;;4976533;28;20213;-83
2022/05/01 03:49:43;;;;;;;2.20;2.00;;;23.10;52.80;;;;;;4989973;28;20418;-83
2022/05/01 03:52:09;;;;;;;2.40;2.07;;;23.10;52.80;;;;;;4995291;28;20437;-83
2022/05/01 03:54:35;;;;;;;2.47;2.10;;;23.10;52.80;;;;;;5010848;28;20416;-83
2022/05/01 03:57:02;;;;;;;2.43;2.10;;;23.10;52.80;;;;;;4994624;28;20500;-83
2022/05/01 03:59:31;;;;;;;2.77;2.00;;;23.10;52.80;;;;;;5014554;28;20434;-83
2022/05/01 04:01:57;;;;;;;2.17;1.90;;;23.10;52.80;;;;;;4995540;28;20423;-83
2022/05/01 04:04:23;;;;;;;3.80;2.33;;;23.10;52.80;;;;;;4998934;28;20429;-83
2022/05/01 04:06:50;;;;;;;2.57;2.07;;;23.10;52.80;;;;;;4998606;28;20437;-83
2022/05/01 04:09:16;;;;;;;2.50;2.10;;;23.00;52.70;;;;;;4993150;28;20782;-83
2022/05/01 04:12:04;;;;;;;2.10;1.90;;;23.00;52.70;;;;;;4993115;28;20426;-83
2022/05/01 04:18:02;;;;;;;1.83;1.70;;;23.00;52.70;;;;;;5011326;28;20418;-83
2022/05/01 04:20:32;;;;;;;3.03;2.30;;;23.00;52.70;;;;;;5011766;28;20443;-83
2022/05/01 04:22:59;;;;;;;2.10;1.90;;;23.00;52.80;;;;;;4979037;28;20440;-83
2022/05/01 04:25:31;;;;;;;2.53;2.17;;;23.00;52.80;;;;;;5079770;28;20411;-84
2022/05/01 04:28:07;;;;;;;2.20;2.00;;;23.00;52.80;;;;;;5012701;28;20397;-84
2022/05/01 04:30:34;;;;;;;2.20;2.00;;;23.00;52.80;;;;;;4995078;28;20432;-83
2022/05/01 04:33:06;;;;;;;2.43;2.23;;;23.00;52.80;;;;;;5066394;28;20476;-83
2022/05/01 04:36:32;;;;;;;2.37;2.17;;;23.00;52.80;;;;;;5014473;28;20462;-83
2022/05/01 04:39:00;;;;;;;2.20;2.00;;;23.00;52.80;;;;;;4975647;28;20436;-83
2022/05/01 04:41:29;;;;;;;1.73;1.63;;;23.00;52.80;;;;;;4993494;28;20405;-84
2022/05/01 04:43:58;;;;;;;2.60;2.10;;;23.00;52.90;;;;;;4975065;28;20425;-83
2022/05/01 04:46:24;;;;;;;2.20;1.80;;;23.00;52.80;;;;;;4939600;28;20475;-83
2022/05/01 04:48:59;;;;;;;2.27;2.07;;;23.00;52.80;;;;;;4952901;28;20426;-83
2022/05/01 04:51:26;;;;;;;2.37;1.90;;;23.00;52.80;;;;;;4945994;29;20430;-83
2022/05/01 04:53:54;;;;;;;2.00;1.80;;;23.00;52.80;;;;;;4953445;29;20470;-83
2022/05/01 04:59:07;;;;;;;2.33;2.13;;;23.00;52.90;;;;;;4953450;29;20399;-84
2022/05/01 05:01:35;;;;;;;2.23;2.03;;;23.00;52.90;;;;;;4952842;28;20419;-84
2022/05/01 05:04:03;;;;;;;2.57;2.20;;;23.00;52.90;;;;;;4952462;29;20423;-84
2022/05/01 05:06:29;;;;;;;2.53;2.00;;;23.00;52.90;;;;;;4936928;28;20581;-84
2022/05/01 05:11:41;;;;;;;2.50;2.17;;;23.00;52.90;;;;;;4953044;29;20487;-83
2022/05/01 05:14:07;;;;;;;3.10;2.10;;;23.00;52.90;;;;;;4956469;28;20455;-84
2022/05/01 05:16:34;;;;;;;2.00;1.80;;;23.00;52.90;;;;;;4995124;28;20212;-84
2022/05/01 05:19:00;;;;;;;1.70;1.60;;;23.00;53.00;;;;;;5001574;28;20421;-84
2022/05/01 05:21:32;;;;;;;2.00;1.67;;;23.00;52.90;;;;;;4995301;28;20440;-84
2022/05/01 05:24:01;;;;;;;2.47;2.20;;;23.00;52.90;;;;;;4980031;28;20193;-83
2022/05/01 05:26:28;;;;;;;2.27;2.07;;;23.00;52.90;;;;;;4995913;28;20423;-84
2022/05/01 05:28:54;;;;;;;2.03;1.93;;;23.00;52.90;;;;;;4979093;28;20508;-84
2022/05/01 05:31:21;;;;;;;1.83;1.73;;;23.00;52.90;;;;;;4995486;28;20424;-83
2022/05/01 05:33:51;;;;;;;2.43;2.23;;;23.10;53.00;;;;;;4996613;28;20485;-84
2022/05/01 05:36:22;;;;;;;2.23;2.03;;;23.10;53.00;;;;;;4999491;28;20423;-84
2022/05/01 05:38:49;;;;;;;2.00;1.80;;;23.10;53.00;;;;;;5014846;28;20439;-83
2022/05/01 05:41:16;;;;;;;2.00;1.77;;;23.10;53.00;;;;;;5015295;28;20434;-83
2022/05/01 05:43:44;;;;;;;2.00;1.80;;;23.10;53.00;;;;;;5015576;28;20431;-83
2022/05/01 05:46:11;;;;;;;2.60;2.10;;;23.10;53.60;;;;;;5014890;28;20412;-84
2022/05/01 05:48:38;;;;;;;2.00;1.77;;;23.10;53.00;;;;;;5015963;28;20420;-83
2022/05/01 05:51:09;;;;;;;2.50;1.90;;;23.10;53.00;;;;;;4998482;28;20463;-83
2022/05/01 05:53:39;;;;;;;2.33;2.13;;;23.10;53.00;;;;;;5002015;28;20452;-84
2022/05/01 05:56:05;;;;;;;2.00;1.83;;;23.10;53.00;;;;;;5030596;28;20446;-84
2022/05/01 05:58:33;;;;;;;2.10;1.83;;;23.10;53.10;;;;;;5014128;28;20421;-84
2022/05/01 06:00:59;;;;;;;2.67;2.30;;;23.10;53.10;;;;;;5013685;28;20473;-84
2022/05/01 06:03:26;;;;;;;2.53;1.77;;;23.10;53.10;;;;;;5014275;28;20412;-84
2022/05/01 06:05:54;;;;;;;1.67;1.53;;;23.10;53.10;;;;;;5014263;28;20431;-82
2022/05/01 06:08:22;;;;;;;2.77;2.30;;;23.10;53.10;;;;;;5030329;28;20420;-82
2022/05/01 06:10:50;;;;;;;2.00;1.80;;;23.10;53.10;;;;;;4984597;28;20436;-83
2022/05/01 06:13:17;;;;;;;1.90;1.80;;;23.10;53.10;;;;;;4994325;28;20464;-82
2022/05/01 06:15:43;;;;;;;1.87;1.73;;;23.10;53.60;;;;;;4994681;28;20432;-83
2022/05/01 06:18:13;;;;;;;2.33;1.90;;;23.10;53.10;;;;;;4995248;28;20441;-84
2022/05/01 06:20:44;;;;;;;2.20;2.00;;;23.10;53.10;;;;;;4995367;28;20460;-83
2022/05/01 06:23:10;;;;;;;2.00;1.80;;;23.10;53.10;;;;;;4977447;28;20433;-82
2022/05/01 06:25:44;;;;;;;2.13;1.70;;;23.10;53.00;;;;;;4994479;28;20444;-82
2022/05/01 06:28:14;;;;;;;1.77;1.67;;;23.10;53.00;;;;;;4987618;28;20455;-82
2022/05/01 06:30:47;;;;;;;2.00;1.90;;;23.10;53.10;;;;;;5014921;28;20432;-82
2022/05/01 06:33:15;;;;;;;3.00;2.00;;;23.10;53.10;;;;;;5015481;28;20447;-83
2022/05/01 06:35:49;;;;;;;2.20;1.90;;;23.10;53.00;;;;;;5013120;28;20409;-83
2022/05/01 06:38:16;;;;;;;2.40;2.20;;;23.10;52.90;;;;;;5003222;28;20414;-83
2022/05/01 06:40:46;;;;;;;2.97;2.67;;;23.10;52.80;;;;;;4979349;28;20436;-84
2022/05/01 06:43:15;;;;;;;2.47;2.27;;;23.10;52.70;;;;;;5001406;28;20419;-84
2022/05/01 06:45:42;;;;;;;2.80;2.60;;;23.10;52.70;;;;;;5011276;28;20453;-84
2022/05/01 06:48:11;;;;;;;4.10;2.40;;;23.10;52.80;;;;;;4978876;28;20519;-83
2022/05/01 06:50:39;;;;;;;3.83;2.00;;;23.10;52.80;;;;;;4993644;28;20437;-84
2022/05/01 06:53:07;;;;;;;2.73;2.20;;;23.10;52.90;;;;;;4994796;28;20452;-84
2022/05/01 06:55:36;;;;;;;3.50;2.30;;;23.10;52.90;;;;;;4978366;28;20432;-83
2022/05/01 06:58:08;;;;;;;2.43;2.23;;;23.10;52.90;;;;;;5010059;28;20418;-82
2022/05/01 07:00:39;;;;;;;3.00;1.90;;;23.10;52.90;;;;;;5007886;28;20480;-83
2022/05/01 07:03:06;;;;;;;3.83;2.37;;;23.10;52.80;;;;;;5019847;28;20475;-83
2022/05/01 07:05:32;;;;;;;2.53;2.23;;;23.20;52.90;;;;;;5010500;28;20444;-83
2022/05/01 07:08:02;;;;;;;2.00;1.80;;;23.20;52.90;;;;;;5028644;28;20425;-82
2022/05/01 07:10:33;;;;;;;2.53;2.33;;;23.20;52.90;;;;;;5034073;28;20431;-82
2022/05/01 07:13:00;;;;;;;2.23;1.90;;;23.10;52.80;;;;;;5040188;28;20450;-82
2022/05/01 07:15:27;;;;;;;2.43;1.93;;;23.20;52.80;;;;;;4977673;28;20421;-84
2022/05/01 07:17:53;;;;;;;3.47;2.30;;;23.20;52.80;;;;;;5088944;28;20429;-82
2022/05/01 07:20:19;;;;;;;2.10;1.97;;;23.20;52.80;;;;;;5016604;28;20408;-82
2022/05/01 07:22:46;;;;;;;2.57;2.10;;;23.20;52.80;;;;;;5027030;28;20401;-83
2022/05/01 07:25:21;;;;;;;2.47;2.10;;;23.20;52.80;;;;;;5096562;28;20420;-83
2022/05/01 07:27:48;;;;;;;2.70;2.03;;;23.20;52.80;;;;;;5008072;28;20458;-83
2022/05/01 07:30:16;;;;;;;3.03;2.20;;;23.20;52.80;;;;;;5009781;28;20489;-83
2022/05/01 07:32:45;;;;;;;3.60;2.47;;;23.20;52.80;;;;;;4997437;28;20483;-83
2022/05/01 07:35:12;;;;;;;2.63;2.43;;;23.20;52.80;;;;;;5077476;28;20447;-82
2022/05/01 07:37:38;;;;;;;3.70;2.77;;;23.20;52.80;;;;;;5061807;28;20421;-82
2022/05/01 07:40:05;;;;;;;4.97;2.70;;;23.20;52.80;;;;;;4992943;28;20436;-82
2022/05/01 07:42:36;;;;;;;4.03;2.57;;;23.20;52.80;;;;;;5060880;28;20488;-83
2022/05/01 07:45:03;;;;;;;5.47;2.80;;;23.20;52.80;;;;;;4963978;28;20413;-82
2022/05/01 07:47:33;;;;;;;4.03;2.80;;;23.20;52.80;;;;;;4994001;28;20417;-82
2022/05/01 07:50:00;;;;;;;5.30;3.07;;;23.20;52.90;;;;;;5013574;28;20404;-82
2022/05/01 07:52:27;;;;;;;3.73;3.33;;;23.20;52.80;;;;;;5012988;28;20436;-82
2022/05/01 07:54:55;;;;;;;4.60;2.73;;;23.20;52.80;;;;;;5080132;28;21228;-82
2022/05/01 07:57:26;;;;;;;4.07;3.20;;;23.30;52.90;;;;;;5022023;28;20437;-82
2022/05/01 07:59:54;;;;;;;3.63;3.10;;;23.30;52.90;;;;;;5013977;28;20416;-82
2022/05/01 08:02:34;;;;;;;3.83;3.13;;;23.20;52.80;;;;;;5019745;28;20421;-82
2022/05/01 08:05:04;;;;;;;2.87;2.50;;;23.30;52.90;;;;;;5021252;28;20435;-83
2022/05/01 08:07:36;;;;;;;5.13;2.97;;;23.30;52.90;;;;;;5008037;28;20440;-83
2022/05/01 08:10:06;;;;;;;4.10;2.83;;;23.30;53.00;;;;;;5006299;28;20438;-84
2022/05/01 08:12:33;;;;;;;3.63;2.80;;;23.30;52.90;;;;;;5006319;28;20489;-84
2022/05/01 08:15:17;;;;;;;4.77;3.00;;;23.30;52.90;;;;;;5011286;28;20440;-82
2022/05/01 08:17:45;;;;;;;4.93;2.60;;;23.30;52.90;;;;;;5068105;28;20413;-82
2022/05/01 08:23:11;;;;;;;3.50;3.07;;;23.30;52.90;;;;;;5012857;28;20412;-83
2022/05/01 08:25:49;;;;;;;3.97;2.53;;;23.30;53.00;;;;;;5010095;28;20432;-84
2022/05/01 08:28:15;;;;;;;3.80;3.10;;;23.30;53.50;;;;;;5005379;28;20505;-84
2022/05/01 08:30:52;;;;;;;7.90;3.70;;;23.30;53.00;;;;;;5028917;28;20429;-84
2022/05/01 08:33:22;;;;;;;3.47;2.80;;;23.30;53.00;;;;;;5009620;28;20456;-82
2022/05/01 08:35:55;;;;;;;5.33;2.97;;;23.30;53.00;;;;;;5001331;28;20428;-82
2022/05/01 08:38:44;;;;;;;5.50;2.97;;;23.30;53.00;;;;;;5018366;28;20816;-83
2022/05/01 08:41:12;;;;;;;6.07;3.17;;;23.30;53.60;;;;;;5093726;28;20408;-83
2022/05/01 08:43:40;;;;;;;3.97;3.00;;;23.30;53.00;;;;;;4988352;28;20428;-83
2022/05/01 08:46:28;;;;;;;4.43;3.30;;;23.30;53.00;;;;;;5003269;28;20416;-82
2022/05/01 08:49:05;;;;;;;7.10;2.57;;;23.30;53.00;;;;;;4996096;28;20441;-83
2022/05/01 08:51:42;;;;;;;3.90;2.87;;;23.30;53.00;;;;;;4976911;28;20447;-84
2022/05/01 08:54:12;;;;;;;4.37;3.10;;;23.30;53.00;;;;;;4974562;28;20475;-83
2022/05/01 08:56:59;;;;;;;;;;;;;;;;;;;;;
2022/05/01 08:59:38;;;;;;;3.70;3.20;;;23.30;53.00;;;;;;4994703;28;20428;-84
2022/05/01 09:02:27;;;;;;;3.57;2.90;;;23.30;53.00;;;;;;4978016;28;20417;-84
2022/05/01 09:04:58;;;;;;;8.87;3.07;;;23.30;53.00;;;;;;4982038;28;20413;-82
2022/05/01 09:07:31;;;;;;;3.13;2.67;;;23.30;53.00;;;;;;4979841;28;20485;-83
2022/05/01 09:10:08;;;;;;;4.50;3.10;;;23.30;53.00;;;;;;4994334;28;20409;-83
2022/05/01 09:12:49;;;;;;;3.30;2.80;;;23.30;53.00;;;;;;4979450;28;20460;-83
2022/05/01 09:15:40;;;;;;;2.90;2.43;;;23.30;53.00;;;;;;4979145;28;20417;-84
2022/05/01 09:18:08;;;;;;;3.77;2.57;;;23.30;53.00;;;;;;4977937;28;20409;-84
2022/05/01 09:20:57;;;;;;;3.30;2.60;;;23.30;53.00;;;;;;4979241;28;20436;-83
2022/05/01 09:23:48;;;;;;;3.40;2.70;;;23.30;53.00;;;;;;4994563;28;20437;-84
2022/05/01 09:29:40;;;;;;;5.13;3.47;;;23.30;53.00;;;;;;5048224;28;20453;-83
2022/05/01 09:32:11;;;;;;;4.00;2.53;;;23.30;53.10;;;;;;4960230;28;20492;-83
2022/05/01 09:34:40;;;;;;;3.90;2.80;;;23.30;53.10;;;;;;5075276;28;20525;-83
2022/05/01 09:37:18;;;;;;;3.77;2.90;;;23.30;53.00;;;;;;5075273;28;20414;-83
2022/05/01 09:39:49;;;;;;;4.87;4.10;;;23.30;53.00;;;;;;5074835;28;20433;-83
2022/05/01 09:42:25;;;;;;;6.40;2.90;;;23.30;53.00;;;;;;4973337;28;20425;-83
2022/05/01 09:45:12;;;;;;;3.80;3.20;;;23.30;53.00;;;;;;4977633;28;20440;-83
2022/05/01 09:47:53;;;;;;;3.40;2.63;;;23.30;53.00;;;;;;5029225;28;20434;-83
2022/05/01 09:50:40;;;;;;;3.07;2.60;;;23.30;53.00;;;;;;5045379;28;20456;-84
2022/05/01 09:53:13;;;;;;;4.20;2.83;;;23.30;53.00;;;;;;5074445;28;21044;-83
2022/05/01 09:55:39;;;;;;;3.70;2.80;;;23.30;53.00;;;;;;5056910;28;20417;-83
2022/05/01 09:58:14;;;;;;;3.07;2.77;;;23.30;53.00;;;;;;5074538;28;20417;-84
2022/05/01 10:00:46;;;;;;;3.43;2.80;;;23.30;53.00;;;;;;5073928;28;20482;-84
2022/05/01 10:03:31;;;;;;;4.13;2.97;;;23.30;53.00;;;;;;5070955;28;20465;-84
2022/05/01 10:06:06;;;;;;;3.17;2.80;;;23.30;53.00;;;;;;5010499;28;20417;-84
2022/05/01 10:08:36;;;;;;;2.77;2.47;;;23.30;53.00;;;;;;4999743;28;20405;-84
2022/05/01 10:11:03;;;;;;;3.90;2.70;;;23.30;52.90;;;;;;4993241;28;20463;-84
2022/05/01 10:13:41;;;;;;;3.30;3.00;;;23.30;52.90;;;;;;4992491;28;20471;-84
2022/05/01 10:16:11;;;;;;;3.63;2.80;;;23.40;53.00;;;;;;5005794;28;20404;-84
2022/05/01 10:18:40;;;;;;;3.77;2.63;;;23.40;53.00;;;;;;5027542;28;20446;-84
2022/05/01 10:21:07;;;;;;;3.23;2.80;;;23.40;53.00;;;;;;4993336;28;20413;-84
2022/05/01 10:23:34;;;;;;;4.23;2.67;;;23.30;52.90;;;;;;4993148;28;20425;-84
2022/05/01 10:26:19;;;;;;;4.37;3.27;;;23.40;53.00;;;;;;5004414;28;20467;-84
2022/05/01 10:29:14;;;;;;;3.33;2.63;;;23.40;53.00;;;;;;5012687;28;20444;-84
2022/05/01 10:32:22;;;;;;;4.10;3.17;;;23.40;53.00;;;;;;4992141;28;20414;-84
2022/05/01 10:35:30;;;;;;;3.70;2.73;;;23.40;53.00;;;;;;4957227;28;20440;-84
2022/05/01 10:38:38;;;;;;;3.27;2.60;;;23.30;53.00;;;;;;5014759;28;20436;-84
2022/05/01 10:41:07;;;;;;;2.47;2.17;;;23.30;53.00;;;;;;4975373;28;20421;-84
2022/05/01 10:43:37;;;;;;;3.73;3.07;;;23.30;53.10;;;;;;4991791;28;20448;-84
2022/05/01 10:46:24;;;;;;;3.50;3.00;;;23.30;53.00;;;;;;4976209;28;20429;-84
2022/05/01 10:48:55;;;;;;;4.17;2.80;;;23.30;53.00;;;;;;5056969;28;20412;-84
2022/05/01 10:51:44;;;;;;;2.63;2.43;;;23.30;53.00;;;;;;5012600;28;20426;-84
2022/05/01 10:54:13;;;;;;;2.87;2.50;;;23.30;53.00;;;;;;5010769;28;20471;-84
2022/05/01 10:56:41;;;;;;;3.50;2.47;;;23.30;53.00;;;;;;4995313;28;20417;-84
2022/05/01 10:59:38;;;;;;;3.83;2.67;;;23.30;53.00;;;;;;4959669;28;20483;-84
2022/05/01 11:02:22;;;;;;;3.13;2.67;;;23.40;53.10;;;;;;4974984;28;20416;-84
2022/05/01 11:04:51;;;;;;;3.90;2.90;;;23.30;53.00;;;;;;4991209;28;20389;-84
2022/05/01 11:07:22;;;;;;;3.93;2.83;;;23.30;53.00;;;;;;4958091;28;20409;-84
2022/05/01 11:09:51;;;;;;;4.33;2.97;;;23.30;53.00;;;;;;4980965;28;20434;-84
2022/05/01 11:12:22;;;;;;;2.80;2.57;;;23.30;53.00;;;;;;5009330;28;20409;-83
2022/05/01 11:15:06;;;;;;;3.33;2.27;;;23.30;53.00;;;;;;5007017;28;20417;-84
2022/05/01 11:17:58;;;;;;;3.83;3.13;;;23.40;53.10;;;;;;5012313;28;20442;-84
2022/05/01 11:20:29;;;;;;;3.23;2.53;;;23.40;53.10;;;;;;5090327;28;20778;-84
2022/05/01 11:22:55;;;;;;;3.80;2.60;;;23.30;53.00;;;;;;5058708;28;20420;-84
2022/05/01 11:25:43;;;;;;;3.33;3.00;;;23.30;53.00;;;;;;5077134;28;20416;-84
2022/05/01 11:28:09;;;;;;;3.90;2.50;;;23.40;53.10;;;;;;5075165;28;20425;-83
2022/05/01 11:30:37;;;;;;;3.60;2.47;;;23.30;53.00;;;;;;5093482;28;20428;-83
2022/05/01 11:33:10;;;;;;;3.13;2.67;;;23.30;53.00;;;;;;5075999;28;20456;-83
2022/05/01 11:35:58;;;;;;;3.20;2.90;;;23.30;53.00;;;;;;5076634;28;20420;-83
2022/05/01 11:38:46;;;;;;;2.67;2.43;;;23.30;53.00;;;;;;5092799;28;20416;-84
2022/05/01 11:41:16;;;;;;;3.40;2.80;;;23.30;53.00;;;;;;5092916;28;20389;-84
2022/05/01 11:43:46;;;;;;;3.83;2.60;;;23.30;53.00;;;;;;5059184;28;20946;-84
2022/05/01 11:46:19;;;;;;;2.90;2.60;;;23.30;53.00;;;;;;5093057;28;20494;-83
2022/05/01 11:48:47;;;;;;;3.20;2.80;;;23.30;53.00;;;;;;5092215;28;20468;-83
2022/05/01 11:51:14;;;;;;;4.00;2.93;;;23.30;53.00;;;;;;5074848;28;20495;-84
2022/05/01 11:53:45;;;;;;;3.83;3.20;;;23.30;53.00;;;;;;5055590;28;20457;-84
2022/05/01 12:04:39;;;;;;;3.30;3.00;;;23.30;53.00;;;;;;5005294;28;20404;-84
2022/05/01 12:07:21;;;;;;;2.80;2.30;;;23.30;53.00;;;;;;4992028;28;20417;-84
2022/05/01 12:09:51;;;;;;;2.77;2.33;;;23.30;53.10;;;;;;5010730;28;20440;-84
2022/05/01 12:12:19;;;;;;;2.37;2.13;;;23.30;53.10;;;;;;5008618;28;20424;-84
2022/05/01 12:14:48;;;;;;;3.20;2.80;;;23.30;53.10;;;;;;5009760;28;20436;-83
2022/05/01 12:17:21;;;;;;;2.93;2.63;;;23.30;53.10;;;;;;5007907;28;20409;-83
2022/05/01 12:19:49;;;;;;;3.33;2.60;;;23.30;53.00;;;;;;5009039;28;20408;-83
2022/05/01 12:22:20;;;;;;;4.00;2.53;;;23.30;53.00;;;;;;5004263;28;20437;-84
2022/05/01 12:24:54;;;;;;;2.73;2.37;;;23.30;53.00;;;;;;4997942;28;20456;-83
2022/05/01 12:27:33;;;;;;;2.73;2.17;;;23.30;53.00;;;;;;5022564;28;20451;-84
2022/05/01 12:30:12;;;;;;;2.77;2.57;;;23.30;53.10;;;;;;5033088;28;20429;-83
2022/05/01 12:32:52;;;;;;;4.20;3.00;;;23.30;53.10;;;;;;5010495;28;20452;-84
2022/05/01 12:35:18;;;;;;;2.73;2.47;;;23.30;53.10;;;;;;4998450;28;20431;-84
2022/05/01 12:37:45;;;;;;;3.57;2.57;;;23.30;53.10;;;;;;5037421;28;20416;-83
2022/05/01 12:40:12;;;;;;;2.97;2.77;;;23.30;53.10;;;;;;5010048;28;20422;-83
2022/05/01 12:45:43;;;;;;;3.10;2.57;;;23.30;53.10;;;;;;5002947;28;20455;-83
2022/05/01 12:48:11;;;;;;;2.33;2.13;;;23.30;53.10;;;;;;5012563;28;20960;-84
2022/05/01 12:50:45;;;;;;;3.33;2.57;;;23.30;53.10;;;;;;5006164;28;20415;-84
2022/05/01 12:53:28;;;;;;;2.77;2.57;;;23.30;53.10;;;;;;5012679;28;20454;-84
2022/05/01 12:55:57;;;;;;;2.50;2.30;;;23.30;53.10;;;;;;5013025;28;20464;-84
2022/05/01 12:58:29;;;;;;;3.27;2.67;;;23.30;53.10;;;;;;4994873;28;20424;-84
2022/05/01 13:00:58;;;;;;;3.00;2.70;;;23.30;53.10;;;;;;5020620;28;20392;-83
2022/05/01 13:03:36;;;;;;;2.83;2.60;;;23.30;53.10;;;;;;5005798;28;20425;-84
2022/05/01 13:06:16;;;;;;;2.90;2.60;;;23.30;53.10;;;;;;5014081;28;20440;-83
2022/05/01 13:09:18;;;;;;;2.73;2.53;;;23.30;53.10;;;;;;4995597;28;20449;-83
2022/05/01 13:12:08;;;;;;;4.53;2.77;;;23.30;53.10;;;;;;5066891;28;20437;-84
2022/05/01 13:14:35;;;;;;;3.20;2.77;;;23.20;53.00;;;;;;5053245;28;20445;-84
2022/05/01 13:17:12;;;;;;;3.20;2.90;;;23.20;53.00;;;;;;5053039;28;20428;-85
2022/05/01 13:19:47;;;;;;;2.97;2.60;;;23.20;53.00;;;;;;5070445;28;20417;-85
2022/05/01 13:22:16;;;;;;;3.00;2.70;;;23.20;53.00;;;;;;5071460;28;20457;-84
2022/05/01 13:24:43;;;;;;;3.10;2.70;;;23.20;53.10;;;;;;5053290;28;20425;-84
2022/05/01 13:27:11;;;;;;;2.77;2.57;;;23.20;53.00;;;;;;5063092;28;20769;-88
2022/05/01 13:29:39;;;;;;;3.00;2.67;;;23.20;53.00;;;;;;5070933;28;20424;-86
2022/05/01 13:32:07;;;;;;;3.20;2.53;;;23.20;52.90;;;;;;5025181;28;20414;-87
2022/05/01 13:34:35;;;;;;;3.20;2.60;;;23.20;52.90;;;;;;5063932;28;21106;-87
2022/05/01 13:37:01;;;;;;;2.50;2.30;;;23.30;52.90;;;;;;5064583;28;20425;-87
2022/05/01 13:44:57;;;;;;;2.87;2.53;;;23.20;52.80;;;;;;5063931;28;20408;-87
2022/05/01 13:47:24;;;;;;;3.07;2.23;;;23.20;52.90;;;;;;5017722;28;20420;-85
2022/05/01 13:49:50;;;;;;;2.87;2.67;;;23.20;52.90;;;;;;5008110;28;20443;-87
2022/05/01 13:52:16;;;;;;;2.50;2.30;;;23.20;52.90;;;;;;5009111;28;20998;-87
2022/05/01 13:54:45;;;;;;;3.50;2.60;;;23.20;52.90;;;;;;5008375;28;20444;-87
2022/05/01 13:57:12;;;;;;;3.07;2.77;;;23.20;52.90;;;;;;5009088;28;20423;-87
2022/05/01 13:59:38;;;;;;;2.90;2.63;;;23.20;52.90;;;;;;5008867;28;20417;-87
2022/05/01 14:02:05;;;;;;;3.23;2.77;;;23.20;52.90;;;;;;5008434;28;20419;-87